Greenwood, Indiana
Current Conditions -  °F | °C
As of 8:54 PM on Thursday 20 Nov 2014 (Local Time) from KIND Reporting Station
Few Clouds Few Clouds  
Wind Chill: 12°   Ceiling: Unl
Heat Index: 23°   Visibility: 10mi
Dew Point: 14°   Wind: 10mph
Humidity: 68%   Direction: 240°WSW
Pressure: 30.2"   Gusts: NA
Location:  39.61°N, 86.11°W
Report Text: KIND 210154Z 24009KT 10SM FEW047 M05/M10 A3020 RMK AO2 SLP239 T10501100
Loading
Personal Weather Stations






























Interactive Weather Map New forecast layout! Learn more

10-Day Weather Forecast

Advertisements
Track Severe Weather on mobile